createdAt,value
2019-03-23T00:01:44.863Z,100.00
2019-03-23T00:04:13.368Z,99.98
2019-03-23T00:06:41.848Z,99.46
2019-03-23T00:09:10.363Z,100.00
2019-03-23T00:11:38.844Z,100.00
2019-03-23T00:14:07.426Z,100.00
2019-03-23T00:16:35.906Z,100.00
2019-03-23T00:19:04.412Z,100.00
2019-03-23T00:21:32.891Z,99.91
2019-03-23T00:24:01.398Z,100.00
2019-03-23T00:26:29.877Z,100.00
2019-03-23T00:28:58.365Z,99.81
2019-03-23T00:31:26.840Z,100.00
2019-03-23T00:33:55.340Z,100.00
2019-03-23T00:36:23.822Z,100.00
2019-03-23T00:38:52.320Z,100.00
2019-03-23T00:41:20.805Z,100.00
2019-03-23T00:43:49.300Z,99.90
2019-03-23T00:46:17.774Z,99.72
2019-03-23T00:48:46.284Z,100.00
2019-03-23T00:51:14.761Z,100.00
2019-03-23T00:53:43.261Z,100.00
2019-03-23T00:56:11.734Z,100.00
2019-03-23T00:58:40.231Z,100.00
2019-03-23T01:01:08.703Z,100.00
2019-03-23T01:03:37.207Z,100.00
2019-03-23T01:06:05.753Z,100.00
2019-03-23T01:08:34.428Z,100.00
2019-03-23T01:11:02.909Z,100.00
2019-03-23T01:13:31.383Z,100.00
2019-03-23T01:15:59.874Z,100.00
2019-03-23T01:18:28.347Z,100.00
2019-03-23T01:20:56.846Z,100.00
2019-03-23T01:23:25.320Z,100.00
2019-03-23T01:25:53.926Z,100.00
2019-03-23T01:28:22.528Z,100.00
2019-03-23T01:30:51.022Z,100.00
2019-03-23T01:33:19.493Z,100.00
2019-03-23T01:35:47.985Z,100.00
2019-03-23T01:38:16.458Z,100.00
2019-03-23T01:40:44.966Z,100.00
2019-03-23T01:43:13.433Z,100.00
2019-03-23T01:45:41.938Z,100.00
2019-03-23T01:48:10.416Z,100.00
2019-03-23T01:50:38.910Z,100.00
2019-03-23T01:53:07.384Z,100.00
2019-03-23T01:55:35.955Z,100.00
2019-03-23T01:58:04.438Z,100.00
2019-03-23T02:00:32.930Z,100.00
2019-03-23T02:03:01.407Z,100.00
2019-03-23T02:05:29.910Z,100.00
2019-03-23T02:07:58.451Z,100.00
2019-03-23T02:10:26.948Z,99.34
2019-03-23T02:12:55.425Z,98.90
2019-03-23T02:15:23.918Z,97.37
2019-03-23T02:17:52.393Z,96.34
2019-03-23T02:20:20.886Z,95.64
2019-03-23T02:22:49.356Z,96.02
2019-03-23T02:25:17.862Z,95.22
2019-03-23T02:27:46.342Z,95.26
2019-03-23T02:30:14.987Z,95.12
2019-03-23T02:32:43.458Z,94.41
2019-03-23T02:35:12.232Z,94.46
2019-03-23T02:37:40.712Z,94.16
2019-03-23T02:40:12.819Z,94.60
2019-03-23T02:42:41.298Z,94.36
2019-03-23T02:45:13.771Z,94.75
2019-03-23T02:47:42.255Z,95.05
2019-03-23T02:50:11.387Z,95.16
2019-03-23T02:52:39.883Z,95.60
2019-03-23T02:55:10.206Z,95.84
2019-03-23T02:57:38.744Z,94.94
2019-03-23T03:00:12.780Z,94.22
2019-03-23T03:02:41.234Z,94.97
2019-03-23T03:05:10.068Z,96.24
2019-03-23T03:07:42.609Z,95.67
2019-03-23T03:10:11.109Z,96.02
2019-03-23T03:12:39.649Z,97.24
2019-03-23T03:15:09.395Z,96.99
2019-03-23T03:17:37.858Z,93.66
2019-03-23T03:20:08.404Z,95.36
2019-03-23T03:22:36.875Z,95.98
2019-03-23T03:25:07.411Z,98.11
2019-03-23T03:27:35.882Z,100.00
2019-03-23T03:30:06.327Z,100.00
2019-03-23T03:32:34.803Z,100.00
2019-03-23T03:35:03.375Z,100.00
2019-03-23T03:37:31.858Z,100.00
2019-03-23T03:40:00.550Z,100.00
2019-03-23T03:42:29.279Z,100.00
2019-03-23T03:44:57.754Z,100.00
2019-03-23T03:47:26.323Z,100.00
2019-03-23T03:49:54.802Z,100.00
2019-03-23T03:52:23.304Z,100.00
2019-03-23T03:54:51.888Z,100.00
2019-03-23T03:57:20.366Z,100.00
2019-03-23T03:59:48.840Z,99.46
2019-03-23T04:02:17.342Z,99.22
2019-03-23T04:04:45.816Z,97.82
2019-03-23T04:07:14.314Z,98.02
2019-03-23T04:09:42.781Z,98.13
2019-03-23T04:12:11.280Z,98.79
2019-03-23T04:14:39.752Z,98.74
2019-03-23T04:17:08.245Z,97.00
2019-03-23T04:19:36.724Z,95.61
2019-03-23T04:22:05.237Z,92.55
2019-03-23T04:24:33.688Z,96.04
2019-03-23T04:27:03.830Z,97.07
2019-03-23T04:29:32.679Z,97.23
2019-03-23T04:32:01.173Z,97.75
2019-03-23T04:34:29.642Z,97.84
2019-03-23T04:36:58.137Z,98.79
2019-03-23T04:39:26.607Z,100.00
2019-03-23T04:41:55.107Z,100.00
2019-03-23T04:44:23.580Z,100.00
2019-03-23T04:46:52.085Z,100.00
2019-03-23T04:49:20.561Z,100.00
2019-03-23T04:51:49.062Z,100.00
2019-03-23T04:54:17.530Z,100.00
2019-03-23T04:56:46.708Z,100.00
2019-03-23T04:59:15.186Z,100.00
2019-03-23T05:01:43.684Z,100.00
2019-03-23T05:04:12.165Z,100.00
2019-03-23T05:06:42.517Z,100.00
2019-03-23T05:09:10.858Z,100.00
2019-03-23T05:11:39.359Z,100.00
2019-03-23T05:14:07.833Z,100.00
2019-03-23T05:16:36.377Z,97.68
2019-03-23T05:19:04.848Z,96.68
2019-03-23T05:21:35.000Z,95.02
2019-03-23T05:24:03.473Z,93.78
2019-03-23T05:26:31.967Z,93.19
2019-03-23T05:29:00.443Z,92.15
2019-03-23T05:31:28.946Z,91.36
2019-03-23T05:33:57.422Z,89.45
2019-03-23T05:36:25.921Z,89.49
2019-03-23T05:38:54.398Z,89.18
2019-03-23T05:41:22.900Z,89.09
2019-03-23T05:43:51.382Z,89.22
2019-03-23T05:46:19.879Z,88.85
2019-03-23T05:48:48.354Z,88.01
2019-03-23T05:51:16.853Z,87.95
2019-03-23T05:53:45.328Z,88.39
2019-03-23T05:56:13.824Z,88.62
2019-03-23T05:58:42.307Z,89.38
2019-03-23T06:01:10.811Z,89.21
2019-03-23T06:03:39.283Z,88.90
2019-03-23T06:06:07.785Z,90.14
2019-03-23T06:08:36.261Z,89.89
2019-03-23T06:11:04.759Z,89.70
2019-03-23T06:13:33.242Z,89.77
2019-03-23T06:16:01.723Z,89.97
2019-03-23T06:18:30.228Z,88.86
2019-03-23T06:20:58.701Z,88.71
2019-03-23T06:23:27.213Z,88.83
2019-03-23T06:25:55.689Z,88.63
2019-03-23T06:28:24.179Z,88.74
2019-03-23T06:30:52.657Z,88.94
2019-03-23T06:33:21.167Z,89.34
2019-03-23T06:35:49.642Z,88.84
2019-03-23T06:38:18.147Z,88.64
2019-03-23T06:40:46.626Z,88.11
2019-03-23T06:43:15.125Z,87.97
2019-03-23T06:45:43.604Z,87.04
2019-03-23T06:48:12.100Z,87.36
2019-03-23T06:50:40.566Z,86.12
2019-03-23T06:53:09.071Z,85.90
2019-03-23T06:55:37.547Z,87.29
2019-03-23T06:58:06.118Z,88.31
2019-03-23T07:00:34.592Z,88.42
2019-03-23T07:03:03.093Z,86.38
2019-03-23T07:05:31.574Z,85.50
2019-03-23T07:08:00.077Z,86.22
2019-03-23T07:10:28.558Z,84.78
2019-03-23T07:12:57.061Z,83.68
2019-03-23T07:15:25.540Z,87.04
2019-03-23T07:17:54.050Z,86.13
2019-03-23T07:20:22.529Z,85.68
2019-03-23T07:22:51.037Z,85.20
2019-03-23T07:25:19.509Z,85.15
2019-03-23T07:27:48.012Z,85.98
2019-03-23T07:30:18.030Z,85.21
2019-03-23T07:32:46.532Z,84.25
2019-03-23T07:35:15.352Z,84.73
2019-03-23T07:37:43.933Z,83.31
2019-03-23T07:40:13.260Z,83.24
2019-03-23T07:42:41.895Z,81.75
2019-03-23T07:45:12.729Z,81.45
2019-03-23T07:47:41.214Z,81.05
2019-03-23T07:50:11.839Z,81.76
2019-03-23T07:52:40.348Z,80.60
2019-03-23T07:55:14.151Z,79.00
2019-03-23T07:57:42.990Z,78.82
2019-03-23T08:00:21.534Z,77.87
2019-03-23T08:02:50.101Z,78.20
2019-03-23T08:05:18.720Z,79.92
2019-03-23T08:07:47.344Z,81.13
2019-03-23T08:10:30.650Z,77.85
2019-03-23T08:12:59.443Z,79.26
2019-03-23T08:15:28.188Z,81.63
2019-03-23T08:17:57.122Z,78.64
2019-03-23T08:20:25.785Z,76.25
2019-03-23T08:22:55.251Z,76.34
2019-03-23T08:25:23.752Z,76.69
2019-03-23T08:27:52.234Z,76.37
2019-03-23T08:30:20.807Z,75.44
2019-03-23T08:32:49.287Z,74.76
2019-03-23T08:35:17.794Z,74.11
2019-03-23T08:37:46.272Z,73.46
2019-03-23T08:40:14.792Z,73.94
2019-03-23T08:42:43.280Z,73.61
2019-03-23T08:45:11.779Z,71.21
2019-03-23T08:47:40.256Z,71.22
2019-03-23T08:50:09.108Z,72.03
2019-03-23T08:52:37.587Z,69.79
2019-03-23T08:55:07.227Z,69.50
2019-03-23T08:57:35.707Z,70.15
2019-03-23T09:00:05.976Z,68.98
2019-03-23T09:02:34.447Z,70.17
2019-03-23T09:05:02.956Z,68.42
2019-03-23T09:07:31.432Z,69.25
2019-03-23T09:09:59.935Z,67.73
2019-03-23T09:12:28.415Z,66.91
2019-03-23T09:14:56.913Z,62.68
2019-03-23T09:17:25.394Z,63.30
2019-03-23T09:19:53.892Z,59.77
2019-03-23T09:22:22.365Z,58.74
2019-03-23T09:24:50.864Z,59.22
2019-03-23T09:27:19.344Z,59.38
2019-03-23T09:29:47.845Z,58.17
2019-03-23T09:32:16.327Z,57.54
2019-03-23T09:34:44.843Z,57.52
2019-03-23T09:37:13.320Z,59.41
2019-03-23T09:39:41.822Z,58.85
2019-03-23T09:42:10.296Z,58.55
2019-03-23T09:44:38.799Z,59.31
2019-03-23T09:47:07.274Z,57.92
2019-03-23T09:49:35.777Z,60.58
2019-03-23T09:52:04.323Z,58.90
2019-03-23T09:54:32.803Z,58.37
2019-03-23T09:57:01.308Z,58.89
2019-03-23T09:59:29.795Z,58.63
2019-03-23T10:01:58.299Z,59.05
2019-03-23T10:04:26.782Z,58.77
2019-03-23T10:06:55.285Z,58.96
2019-03-23T10:09:23.761Z,58.28
2019-03-23T10:11:52.270Z,58.61
2019-03-23T10:14:20.747Z,58.21
2019-03-23T10:16:49.262Z,57.51
2019-03-23T10:19:17.746Z,57.20
2019-03-23T10:21:46.257Z,59.59
2019-03-23T10:24:14.727Z,57.22
2019-03-23T10:26:43.233Z,55.30
2019-03-23T10:29:11.713Z,57.43
2019-03-23T10:31:40.216Z,58.44
2019-03-23T10:34:08.700Z,56.77
2019-03-23T10:36:37.209Z,54.47
2019-03-23T10:39:06.453Z,53.96
2019-03-23T10:41:34.958Z,53.73
2019-03-23T10:44:03.439Z,53.68
2019-03-23T10:46:31.939Z,53.85
2019-03-23T10:49:00.422Z,52.74
2019-03-23T10:51:28.918Z,52.51
2019-03-23T10:53:57.437Z,53.32
2019-03-23T10:56:25.941Z,53.55
2019-03-23T10:58:54.419Z,51.96
2019-03-23T11:01:22.918Z,56.96
2019-03-23T11:03:51.397Z,54.28
2019-03-23T11:06:19.899Z,55.07
2019-03-23T11:08:48.388Z,53.23
2019-03-23T11:11:16.889Z,53.76
2019-03-23T11:13:45.364Z,51.64
2019-03-23T11:16:13.830Z,50.69
2019-03-23T11:18:42.331Z,50.67
2019-03-23T11:21:10.802Z,46.25
2019-03-23T11:23:39.295Z,46.30
2019-03-23T11:26:07.759Z,47.31
2019-03-23T11:28:36.253Z,45.04
2019-03-23T11:31:04.794Z,43.99
2019-03-23T11:33:33.294Z,43.25
2019-03-23T11:36:01.762Z,44.65
2019-03-23T11:38:30.299Z,43.72
2019-03-23T11:40:58.723Z,42.53
2019-03-23T11:43:27.224Z,41.63
2019-03-23T11:45:55.705Z,42.28
2019-03-23T11:48:24.199Z,40.88
2019-03-23T11:50:52.677Z,42.88
2019-03-23T11:53:21.166Z,44.14
2019-03-23T11:55:49.637Z,43.33
2019-03-23T11:58:18.135Z,43.97
2019-03-23T12:00:46.615Z,45.44
2019-03-23T12:03:15.130Z,43.44
2019-03-23T12:05:43.809Z,43.27
2019-03-23T12:08:12.292Z,42.43
2019-03-23T12:10:40.775Z,41.08
2019-03-23T12:13:09.278Z,41.33
2019-03-23T12:15:37.749Z,41.23
2019-03-23T12:18:06.247Z,41.12
2019-03-23T12:20:34.725Z,38.82
2019-03-23T12:23:03.235Z,39.23
2019-03-23T12:25:31.703Z,36.11
2019-03-23T12:28:00.198Z,38.59
2019-03-23T12:30:28.668Z,36.17
2019-03-23T12:32:57.158Z,36.88
2019-03-23T12:35:25.632Z,36.98
2019-03-23T12:37:54.127Z,34.98
2019-03-23T12:40:22.603Z,34.86
2019-03-23T12:42:52.607Z,33.34
2019-03-23T12:45:21.081Z,33.06
2019-03-23T12:47:49.551Z,32.11
2019-03-23T12:50:18.046Z,33.25
2019-03-23T12:52:46.515Z,35.94
2019-03-23T12:55:15.008Z,37.32
2019-03-23T12:57:43.476Z,35.71
2019-03-23T13:00:15.118Z,33.63
2019-03-23T13:02:43.962Z,33.17
2019-03-23T13:05:12.635Z,31.16
2019-03-23T13:07:41.194Z,34.04
2019-03-23T13:10:14.467Z,32.96
2019-03-23T13:12:43.074Z,31.22
2019-03-23T13:15:16.436Z,31.20
2019-03-23T13:17:44.907Z,29.87
2019-03-23T13:20:13.864Z,33.40
2019-03-23T13:22:42.307Z,31.73
2019-03-23T13:25:11.042Z,32.77
2019-03-23T13:27:39.510Z,31.66
2019-03-23T13:30:13.757Z,30.88
2019-03-23T13:32:42.221Z,29.69
2019-03-23T13:35:10.779Z,32.28
2019-03-23T13:37:39.315Z,30.97
2019-03-23T13:40:11.104Z,30.29
2019-03-23T13:42:39.574Z,30.76
2019-03-23T13:45:08.707Z,30.00
2019-03-23T13:47:37.547Z,27.72
2019-03-23T13:50:06.883Z,26.79
2019-03-23T13:52:35.355Z,26.73
2019-03-23T13:55:04.790Z,25.38
2019-03-23T13:57:33.254Z,27.87
2019-03-23T14:00:01.758Z,26.77
2019-03-23T14:02:30.220Z,27.56
2019-03-23T14:04:58.715Z,28.70
2019-03-23T14:07:27.186Z,29.69
2019-03-23T14:09:55.686Z,28.88
2019-03-23T14:12:24.163Z,28.23
2019-03-23T14:14:52.651Z,28.45
2019-03-23T14:17:21.128Z,30.25
2019-03-23T14:19:49.614Z,28.64
2019-03-23T14:22:18.084Z,28.59
2019-03-23T14:24:46.575Z,29.44
2019-03-23T14:27:15.060Z,28.90
2019-03-23T14:29:45.430Z,30.04
2019-03-23T14:32:13.754Z,28.75
2019-03-23T14:34:42.220Z,30.59
2019-03-23T14:37:10.717Z,29.59
2019-03-23T14:39:39.191Z,30.74
2019-03-23T14:42:07.685Z,28.09
2019-03-23T14:44:36.153Z,29.62
2019-03-23T14:47:04.657Z,29.18
2019-03-23T14:49:33.133Z,29.47
2019-03-23T14:52:01.696Z,30.19
2019-03-23T14:54:30.174Z,31.85
2019-03-23T14:56:58.685Z,32.56
2019-03-23T14:59:27.239Z,32.94
2019-03-23T15:01:55.740Z,34.32
2019-03-23T15:04:24.213Z,33.71
2019-03-23T15:06:52.706Z,36.58
2019-03-23T15:09:21.173Z,37.81
2019-03-23T15:11:49.702Z,40.11
2019-03-23T15:14:18.182Z,42.89
2019-03-23T15:16:46.692Z,44.09
2019-03-23T15:19:15.705Z,43.97
2019-03-23T15:21:44.346Z,42.38
2019-03-23T15:24:12.824Z,39.46
2019-03-23T15:26:41.319Z,36.49
2019-03-23T15:29:09.802Z,33.60
2019-03-23T15:31:38.303Z,31.88
2019-03-23T15:34:06.854Z,32.98
2019-03-23T15:36:35.353Z,32.26
2019-03-23T15:39:05.700Z,32.05
2019-03-23T15:41:34.199Z,32.59
2019-03-23T15:44:02.736Z,32.58
2019-03-23T15:46:31.245Z,32.73
2019-03-23T15:48:59.718Z,31.86
2019-03-23T15:51:28.219Z,32.64
2019-03-23T15:53:56.686Z,31.95
2019-03-23T15:56:25.179Z,32.91
2019-03-23T15:58:53.651Z,34.09
2019-03-23T16:01:23.280Z,35.15
2019-03-23T16:03:51.811Z,35.61
2019-03-23T16:06:20.312Z,36.22
2019-03-23T16:08:48.792Z,34.66
2019-03-23T16:11:17.301Z,34.59
2019-03-23T16:13:45.810Z,35.09
2019-03-23T16:16:14.307Z,37.14
2019-03-23T16:18:42.801Z,37.92
2019-03-23T16:21:11.276Z,38.11
2019-03-23T16:23:39.777Z,38.71
2019-03-23T16:26:08.262Z,40.15
2019-03-23T16:28:36.758Z,41.66
2019-03-23T16:31:05.270Z,42.39
2019-03-23T16:33:33.775Z,42.67
2019-03-23T16:36:03.606Z,44.41
2019-03-23T16:38:32.228Z,45.68
2019-03-23T16:41:00.713Z,45.68
2019-03-23T16:43:29.211Z,48.13
2019-03-23T16:45:57.689Z,48.30
2019-03-23T16:48:26.193Z,49.81
2019-03-23T16:50:54.697Z,51.62
2019-03-23T16:53:23.336Z,52.48
2019-03-23T16:55:51.805Z,54.03
2019-03-23T16:58:20.311Z,54.86
2019-03-23T17:00:48.777Z,56.29
2019-03-23T17:03:17.269Z,57.33
2019-03-23T17:05:45.823Z,57.73
2019-03-23T17:08:14.319Z,58.87
2019-03-23T17:10:42.798Z,59.56
2019-03-23T17:13:11.319Z,60.17
2019-03-23T17:15:39.775Z,60.87
2019-03-23T17:18:08.349Z,61.67
2019-03-23T17:20:36.825Z,61.49
2019-03-23T17:23:05.324Z,62.45
2019-03-23T17:25:33.801Z,63.33
2019-03-23T17:28:02.302Z,63.83
2019-03-23T17:30:30.854Z,64.48
2019-03-23T17:32:59.362Z,64.94
2019-03-23T17:35:27.823Z,65.64
2019-03-23T17:37:56.322Z,66.92
2019-03-23T17:40:24.797Z,68.11
2019-03-23T17:42:53.309Z,69.75
2019-03-23T17:45:21.786Z,70.14
2019-03-23T17:47:50.298Z,71.53
2019-03-23T17:50:18.778Z,71.82
2019-03-23T17:52:47.701Z,72.66
2019-03-23T17:55:16.195Z,72.31
2019-03-23T17:57:44.672Z,69.86
2019-03-23T18:00:13.882Z,67.64
2019-03-23T18:02:42.352Z,66.71
2019-03-23T18:05:12.290Z,66.67
2019-03-23T18:07:40.875Z,67.54
2019-03-23T18:10:10.109Z,69.62
2019-03-23T18:12:38.725Z,70.77
2019-03-23T18:15:11.558Z,71.34
2019-03-23T18:17:40.147Z,71.86
2019-03-23T18:20:09.375Z,72.14
2019-03-23T18:22:37.856Z,72.78
2019-03-23T18:25:07.309Z,73.71
2019-03-23T18:27:35.791Z,74.84
2019-03-23T18:30:07.674Z,76.20
2019-03-23T18:32:36.222Z,77.68
2019-03-23T18:35:06.559Z,77.82
2019-03-23T18:37:35.038Z,78.54
2019-03-23T18:40:05.277Z,79.43
2019-03-23T18:42:35.268Z,80.57
2019-03-23T18:45:04.747Z,81.06
2019-03-23T18:47:33.223Z,81.60
2019-03-23T18:50:01.725Z,81.76
2019-03-23T18:52:30.194Z,82.20
2019-03-23T18:54:58.691Z,82.46
2019-03-23T18:57:27.174Z,82.33
2019-03-23T18:59:55.678Z,82.29
2019-03-23T19:02:24.294Z,81.89
2019-03-23T19:04:52.802Z,81.71
2019-03-23T19:07:21.298Z,79.82
2019-03-23T19:09:49.921Z,79.35
2019-03-23T19:12:18.405Z,78.82
2019-03-23T19:14:46.931Z,79.15
2019-03-23T19:17:15.420Z,77.65
2019-03-23T19:19:43.906Z,78.10
2019-03-23T19:22:12.388Z,77.94
2019-03-23T19:24:40.893Z,77.82
2019-03-23T19:27:09.937Z,77.74
2019-03-23T19:29:38.446Z,76.69
2019-03-23T19:32:06.991Z,77.12
2019-03-23T19:34:35.508Z,77.83
2019-03-23T19:37:03.980Z,78.88
2019-03-23T19:39:32.487Z,79.64
2019-03-23T19:42:00.952Z,81.01
2019-03-23T19:44:29.453Z,81.65
2019-03-23T19:46:57.934Z,82.36
2019-03-23T19:49:26.413Z,83.31
2019-03-23T19:51:54.919Z,84.03
2019-03-23T19:54:23.395Z,84.68
2019-03-23T19:56:51.902Z,85.29
2019-03-23T19:59:20.385Z,85.88
2019-03-23T20:01:49.101Z,85.98
2019-03-23T20:04:17.577Z,86.80
2019-03-23T20:06:46.734Z,86.28
2019-03-23T20:09:15.452Z,86.79
2019-03-23T20:11:44.262Z,86.77
2019-03-23T20:14:13.116Z,86.63
2019-03-23T20:16:46.001Z,86.60
2019-03-23T20:19:14.613Z,87.01
2019-03-23T20:21:43.150Z,86.96
2019-03-23T20:24:12.201Z,86.96
2019-03-23T20:26:41.909Z,86.78
2019-03-23T20:29:11.942Z,87.11
2019-03-23T20:31:41.289Z,86.85
2019-03-23T20:34:16.248Z,87.23
2019-03-23T20:36:48.618Z,87.49
2019-03-23T20:39:20.231Z,87.64
2019-03-23T20:41:50.429Z,88.12
2019-03-23T20:44:21.946Z,88.73
2019-03-23T20:46:50.760Z,87.79
2019-03-23T20:49:19.510Z,87.72
2019-03-23T20:51:48.220Z,88.62
2019-03-23T20:54:16.761Z,87.46
2019-03-23T20:56:45.322Z,87.92
2019-03-23T20:59:13.800Z,87.46
2019-03-23T21:01:42.301Z,89.26
2019-03-23T21:04:10.782Z,89.63
2019-03-23T21:06:39.330Z,89.99
2019-03-23T21:09:08.116Z,89.70
2019-03-23T21:11:36.727Z,89.40
2019-03-23T21:14:05.309Z,87.87
2019-03-23T21:16:33.818Z,86.82
2019-03-23T21:19:02.371Z,88.94
2019-03-23T21:21:30.898Z,89.57
2019-03-23T21:23:59.379Z,90.64
2019-03-23T21:26:27.878Z,91.07
2019-03-23T21:28:56.357Z,90.61
2019-03-23T21:31:24.866Z,91.22
2019-03-23T21:33:53.347Z,92.59
2019-03-23T21:36:21.858Z,93.81
2019-03-23T21:38:50.336Z,94.13
2019-03-23T21:41:18.842Z,92.02
2019-03-23T21:43:47.322Z,91.76
2019-03-23T21:46:15.826Z,90.98
2019-03-23T21:48:44.302Z,91.67
2019-03-23T21:51:12.789Z,92.34
2019-03-23T21:53:41.310Z,91.67
2019-03-23T21:56:09.787Z,91.57
2019-03-23T21:58:38.287Z,92.81
2019-03-23T22:01:06.760Z,93.04
2019-03-23T22:03:35.260Z,92.97
2019-03-23T22:06:03.976Z,92.63
2019-03-23T22:08:32.482Z,91.32
2019-03-23T22:11:00.956Z,91.48
2019-03-23T22:13:29.476Z,91.60
2019-03-23T22:15:57.945Z,93.28
2019-03-23T22:18:26.487Z,93.59
2019-03-23T22:20:54.959Z,94.68
2019-03-23T22:23:23.465Z,94.31
2019-03-23T22:25:51.946Z,94.85
2019-03-23T22:28:20.512Z,94.86
2019-03-23T22:30:48.989Z,93.61
2019-03-23T22:33:17.496Z,93.45
2019-03-23T22:35:45.974Z,92.70
2019-03-23T22:38:14.475Z,92.60
2019-03-23T22:40:42.950Z,93.29
2019-03-23T22:43:11.450Z,94.13
2019-03-23T22:45:39.928Z,94.23
2019-03-23T22:48:08.423Z,93.39
2019-03-23T22:50:36.904Z,93.33
2019-03-23T22:53:05.405Z,92.88
2019-03-23T22:55:33.891Z,92.69
2019-03-23T22:58:02.396Z,92.65
2019-03-23T23:00:41.968Z,93.27
2019-03-23T23:03:10.704Z,93.74
2019-03-23T23:05:39.269Z,94.06
2019-03-23T23:08:07.767Z,94.26
2019-03-23T23:10:36.617Z,93.11
2019-03-23T23:13:05.186Z,92.22
2019-03-23T23:15:33.668Z,93.04
2019-03-23T23:18:02.167Z,94.17
2019-03-23T23:20:30.645Z,93.82
2019-03-23T23:22:59.151Z,93.31
2019-03-23T23:25:27.624Z,92.77
2019-03-23T23:27:56.127Z,92.44
2019-03-23T23:30:24.603Z,92.34
2019-03-23T23:32:53.108Z,91.51
2019-03-23T23:35:21.589Z,91.96
2019-03-23T23:37:50.100Z,92.42
2019-03-23T23:40:18.575Z,93.27
2019-03-23T23:42:47.080Z,93.13
2019-03-23T23:45:16.106Z,92.90
2019-03-23T23:47:44.650Z,93.05
2019-03-23T23:50:13.212Z,93.95
2019-03-23T23:52:41.690Z,93.78
2019-03-23T23:55:10.334Z,94.32
2019-03-23T23:57:38.808Z,93.99
